Time;durP1;ratioP1;P1;durP2;ratioP2;P2;SDS_P1;SDS_P2;PMS_P1;PMS_P2;Temp;Humidity;BMP_temperature;BMP_pressure;BME280_temperature;BME280_humidity;BME280_pressure;Samples;Min_cycle;Max_cycle;Signal;HPM_P1;HPM_P2
2023/11/24 00:01:19;;;;;;;23.55;4.85;;;10.60;99.90;;;;;;4170680;28;20043;-76
2023/11/24 00:03:20;;;;;;;27.20;4.45;;;10.50;99.90;;;;;;4165962;28;20037;-75
2023/11/24 00:05:21;;;;;;;22.58;4.55;;;10.50;99.90;;;;;;4138666;28;20045;-75
2023/11/24 00:07:22;;;;;;;23.45;4.15;;;10.60;99.90;;;;;;4128556;28;20415;-75
2023/11/24 00:09:29;;;;;;;29.20;4.75;;;10.50;99.90;;;;;;4163775;28;20108;-76
2023/11/24 00:11:29;;;;;;;16.55;3.85;;;10.50;99.90;;;;;;4141637;28;20116;-76
2023/11/24 00:13:30;;;;;;;21.58;3.95;;;10.60;99.90;;;;;;4148346;28;20056;-76
2023/11/24 00:15:31;;;;;;;22.08;4.63;;;10.50;99.90;;;;;;4161851;28;20554;-75
2023/11/24 00:17:31;;;;;;;24.38;5.05;;;10.60;99.90;;;;;;4156086;28;20079;-75
2023/11/24 00:19:32;;;;;;;21.30;5.25;;;10.50;99.90;;;;;;4166546;28;20040;-75
2023/11/24 00:21:37;;;;;;;26.75;5.68;;;10.50;99.90;;;;;;4163553;28;20476;-75
2023/11/24 00:23:37;;;;;;;17.10;3.45;;;10.50;99.90;;;;;;4149138;28;20683;-75
2023/11/24 00:25:38;;;;;;;22.15;4.80;;;10.50;99.90;;;;;;4163741;28;20045;-75
2023/11/24 00:27:39;;;;;;;20.58;4.25;;;10.50;99.90;;;;;;4166275;28;20553;-75
2023/11/24 00:29:41;;;;;;;25.73;5.18;;;10.50;99.90;;;;;;4142408;28;20064;-76
2023/11/24 00:31:42;;;;;;;27.20;4.60;;;10.50;99.90;;;;;;4159130;28;20032;-76
2023/11/24 00:33:42;;;;;;;33.25;5.05;;;10.50;99.90;;;;;;4169227;28;20104;-75
2023/11/24 00:35:43;;;;;;;22.45;4.80;;;10.40;99.90;;;;;;4148746;28;20112;-76
2023/11/24 00:37:44;;;;;;;24.92;4.53;;;10.50;99.90;;;;;;4152938;28;20056;-75
2023/11/24 00:39:44;;;;;;;17.30;4.20;;;10.40;99.90;;;;;;4163969;28;20206;-75
2023/11/24 00:41:45;;;;;;;23.50;4.07;;;10.40;99.90;;;;;;4163022;28;20036;-76
2023/11/24 00:43:46;;;;;;;21.23;4.00;;;10.50;99.90;;;;;;4165261;28;20454;-75
2023/11/24 00:45:47;;;;;;;24.17;4.20;;;10.50;99.90;;;;;;4150265;28;20041;-75
2023/11/24 00:47:48;;;;;;;25.10;4.35;;;10.50;99.90;;;;;;4172024;28;20045;-75
2023/11/24 00:49:48;;;;;;;13.05;3.20;;;10.40;99.90;;;;;;4173775;28;20108;-75
2023/11/24 00:51:49;;;;;;;18.75;4.13;;;10.40;99.90;;;;;;4166739;28;20040;-75
2023/11/24 00:53:49;;;;;;;20.48;3.80;;;10.30;99.90;;;;;;4137569;28;20539;-75
2023/11/24 00:55:50;;;;;;;18.10;4.15;;;10.20;99.90;;;;;;4144530;28;20041;-75
2023/11/24 00:57:51;;;;;;;19.48;4.00;;;10.20;99.90;;;;;;4150455;28;20092;-75
2023/11/24 00:59:52;;;;;;;22.65;3.70;;;10.10;99.90;;;;;;4169759;28;20026;-74
2023/11/24 01:01:53;;;;;;;20.25;3.85;;;10.00;99.90;;;;;;4169479;28;20041;-74
2023/11/24 01:03:53;;;;;;;22.83;3.60;;;10.00;99.90;;;;;;4166007;28;20487;-74
2023/11/24 01:05:54;;;;;;;15.27;3.65;;;10.00;99.90;;;;;;4167758;28;20037;-76
2023/11/24 01:07:55;;;;;;;19.55;3.15;;;10.00;99.90;;;;;;4166716;28;20029;-75
2023/11/24 01:09:55;;;;;;;15.30;3.00;;;9.90;99.90;;;;;;4149579;28;20128;-74
2023/11/24 01:11:56;;;;;;;13.55;3.45;;;9.90;99.90;;;;;;4146991;28;20034;-74
2023/11/24 01:13:58;;;;;;;18.08;3.58;;;9.90;99.90;;;;;;4147178;28;20063;-75
2023/11/24 01:15:58;;;;;;;14.75;3.20;;;9.90;99.90;;;;;;4153762;28;20040;-75
2023/11/24 01:18:00;;;;;;;14.07;2.55;;;9.90;99.90;;;;;;4168230;28;20417;-75
2023/11/24 01:20:01;;;;;;;14.55;2.45;;;9.80;99.90;;;;;;4166048;28;20030;-74
2023/11/24 01:22:03;;;;;;;15.57;2.90;;;9.90;99.90;;;;;;4123334;28;20121;-74
2023/11/24 01:24:04;;;;;;;14.83;2.73;;;9.80;99.90;;;;;;4133769;28;20170;-74
2023/11/24 01:26:05;;;;;;;15.80;2.50;;;9.80;99.90;;;;;;4171013;28;20299;-74
2023/11/24 01:28:06;;;;;;;18.30;3.58;;;9.80;99.90;;;;;;4169034;28;20070;-74
2023/11/24 01:30:10;;;;;;;10.93;2.65;;;9.80;99.90;;;;;;4143416;28;20068;-75
2023/11/24 01:32:11;;;;;;;14.88;2.25;;;9.80;99.90;;;;;;4171001;28;20087;-74
2023/11/24 01:34:14;;;;;;;11.65;3.10;;;9.80;99.90;;;;;;4146736;28;20034;-74
2023/11/24 01:36:15;;;;;;;9.07;2.42;;;9.80;99.90;;;;;;4161679;28;20037;-74
2023/11/24 01:38:15;;;;;;;17.02;3.22;;;9.80;99.90;;;;;;4169684;28;20040;-75
2023/11/24 01:40:18;;;;;;;14.60;2.70;;;9.80;99.90;;;;;;4152764;28;20061;-75
2023/11/24 01:42:19;;;;;;;9.40;2.53;;;9.70;99.90;;;;;;4170388;28;20037;-74
2023/11/24 01:44:22;;;;;;;25.90;3.50;;;9.70;99.90;;;;;;4167374;28;20402;-74
2023/11/24 01:46:23;;;;;;;10.68;2.72;;;9.70;99.90;;;;;;4169132;28;20041;-74
2023/11/24 01:48:24;;;;;;;14.30;2.83;;;9.70;99.90;;;;;;4171809;28;20371;-75
2023/11/24 01:50:25;;;;;;;18.27;2.58;;;9.70;99.90;;;;;;4172726;28;20478;-74
2023/11/24 01:52:26;;;;;;;9.43;2.00;;;9.70;99.90;;;;;;4166220;28;20364;-74
2023/11/24 01:54:33;;;;;;;14.18;3.05;;;9.60;99.90;;;;;;4170161;28;20060;-75
2023/11/24 01:56:35;;;;;;;13.25;2.97;;;9.70;99.90;;;;;;4166672;28;20036;-75
2023/11/24 01:58:37;;;;;;;11.38;2.47;;;9.60;99.90;;;;;;4172414;28;20037;-75
2023/11/24 02:00:38;;;;;;;11.43;2.85;;;9.60;99.90;;;;;;4170529;28;20037;-75
2023/11/24 02:02:42;;;;;;;9.30;2.08;;;9.60;99.90;;;;;;4149173;28;20592;-75
2023/11/24 02:04:43;;;;;;;11.15;2.53;;;9.60;99.90;;;;;;4171737;28;20391;-74
2023/11/24 02:06:44;;;;;;;12.50;2.60;;;9.60;99.90;;;;;;4172985;28;20121;-75
2023/11/24 02:08:46;;;;;;;12.50;2.22;;;9.50;99.90;;;;;;4172083;28;20119;-73
2023/11/24 02:10:47;;;;;;;16.10;2.95;;;9.50;99.90;;;;;;4171396;28;20082;-74
2023/11/24 02:12:47;;;;;;;14.95;2.90;;;9.50;99.90;;;;;;4156076;28;20061;-74
2023/11/24 02:14:48;;;;;;;10.38;2.47;;;9.50;99.90;;;;;;4153976;28;20168;-74
2023/11/24 02:16:49;;;;;;;12.70;2.75;;;9.40;99.90;;;;;;4170533;28;20029;-74
2023/11/24 02:18:50;;;;;;;19.23;3.20;;;9.40;99.90;;;;;;4168249;28;20040;-74
2023/11/24 02:20:50;;;;;;;12.43;2.25;;;9.40;99.90;;;;;;4170346;28;20112;-74
2023/11/24 02:22:51;;;;;;;13.48;2.83;;;9.40;99.90;;;;;;4157827;28;20113;-73
2023/11/24 02:24:52;;;;;;;12.75;2.13;;;9.30;99.90;;;;;;4135935;28;20090;-74
2023/11/24 02:26:52;;;;;;;13.50;2.92;;;9.30;99.90;;;;;;4151781;28;20038;-74
2023/11/24 02:28:54;;;;;;;7.63;2.10;;;9.30;99.90;;;;;;4155151;28;20066;-74
2023/11/24 02:30:59;;;;;;;9.05;2.50;;;9.30;99.90;;;;;;4165378;28;20029;-73
2023/11/24 02:33:00;;;;;;;12.05;2.65;;;9.20;99.90;;;;;;4172823;28;20057;-75
2023/11/24 02:35:02;;;;;;;17.73;3.25;;;9.30;99.90;;;;;;4163879;28;20403;-75
2023/11/24 02:37:02;;;;;;;9.38;1.88;;;9.20;99.90;;;;;;4157667;28;20037;-73
2023/11/24 02:39:03;;;;;;;11.63;2.97;;;9.20;99.90;;;;;;4141221;28;20052;-74
2023/11/24 02:41:05;;;;;;;10.38;2.15;;;9.20;99.90;;;;;;4147550;28;20037;-73
2023/11/24 02:43:06;;;;;;;14.02;2.83;;;9.20;99.90;;;;;;4164111;28;20068;-74
2023/11/24 02:45:07;;;;;;;9.32;2.38;;;9.10;99.90;;;;;;4155744;28;20022;-74
2023/11/24 02:47:07;;;;;;;11.82;2.28;;;9.10;99.90;;;;;;4154814;28;20043;-74
2023/11/24 02:49:08;;;;;;;9.63;2.03;;;9.10;99.90;;;;;;4155961;28;20034;-73
2023/11/24 02:51:10;;;;;;;10.30;2.40;;;9.10;99.90;;;;;;4153795;28;20033;-73
2023/11/24 02:53:11;;;;;;;10.90;2.10;;;9.10;99.90;;;;;;4140788;28;20732;-74
2023/11/24 02:55:11;;;;;;;19.13;3.30;;;9.10;99.90;;;;;;4132633;28;20033;-75
2023/11/24 02:57:14;;;;;;;14.33;2.97;;;9.10;99.90;;;;;;4170331;28;20063;-75
2023/11/24 02:59:14;;;;;;;8.98;2.28;;;9.10;99.90;;;;;;4167580;28;20267;-74
2023/11/24 03:01:15;;;;;;;11.18;2.53;;;9.10;99.90;;;;;;4153663;28;20030;-74
2023/11/24 03:03:16;;;;;;;14.70;2.80;;;9.10;99.90;;;;;;4168772;28;20371;-73
2023/11/24 03:05:16;;;;;;;11.15;2.72;;;9.10;99.90;;;;;;4161679;28;20040;-74
2023/11/24 03:07:17;;;;;;;14.75;2.15;;;9.10;99.90;;;;;;4086259;28;20099;-74
2023/11/24 03:09:23;;;;;;;14.45;2.90;;;9.10;99.90;;;;;;4130622;28;20072;-74
2023/11/24 03:11:25;;;;;;;15.07;2.95;;;9.10;99.90;;;;;;4106968;28;20041;-74
2023/11/24 03:13:25;;;;;;;16.95;2.75;;;9.10;99.90;;;;;;4162507;28;20463;-75
2023/11/24 03:15:26;;;;;;;14.43;2.70;;;9.10;99.90;;;;;;4146295;28;20045;-77
2023/11/24 03:17:26;;;;;;;12.60;2.33;;;9.10;99.90;;;;;;4170614;28;20040;-76
2023/11/24 03:19:27;;;;;;;16.20;2.83;;;9.10;99.90;;;;;;4129582;28;20046;-76
2023/11/24 03:21:28;;;;;;;9.48;2.33;;;9.10;99.90;;;;;;4164989;28;20060;-76
2023/11/24 03:23:28;;;;;;;16.10;2.53;;;9.10;99.90;;;;;;4158568;28;20041;-77
2023/11/24 03:25:29;;;;;;;11.38;2.30;;;9.00;99.90;;;;;;4146208;28;21105;-76
2023/11/24 03:27:30;;;;;;;8.88;2.15;;;9.10;99.90;;;;;;4150144;28;20045;-76
2023/11/24 03:29:33;;;;;;;9.13;2.70;;;9.10;99.90;;;;;;4166718;28;20045;-77
2023/11/24 03:31:33;;;;;;;15.90;2.58;;;9.10;99.90;;;;;;4165639;28;20034;-77
2023/11/24 03:33:35;;;;;;;11.20;1.95;;;9.10;99.90;;;;;;4136400;28;20060;-77
2023/11/24 03:35:36;;;;;;;14.18;2.20;;;9.10;99.90;;;;;;4168059;28;20082;-77
2023/11/24 03:37:37;;;;;;;10.38;2.03;;;9.10;99.90;;;;;;4149680;28;20088;-77
2023/11/24 03:39:38;;;;;;;7.28;2.22;;;9.10;99.90;;;;;;4149754;28;20038;-76
2023/11/24 03:41:39;;;;;;;9.55;1.88;;;9.10;99.90;;;;;;4168232;28;20492;-76
2023/11/24 03:43:39;;;;;;;7.57;1.25;;;9.10;99.90;;;;;;4174939;28;20181;-76
2023/11/24 03:45:40;;;;;;;12.73;2.25;;;9.10;99.90;;;;;;4172093;28;20040;-76
2023/11/24 03:47:41;;;;;;;10.32;1.73;;;9.00;99.90;;;;;;4168141;28;20037;-76
2023/11/24 03:49:42;;;;;;;8.25;2.15;;;9.00;99.90;;;;;;4170033;28;20044;-76
2023/11/24 03:51:43;;;;;;;12.55;1.80;;;9.10;99.90;;;;;;4149647;28;20030;-77
2023/11/24 03:53:44;;;;;;;11.45;1.55;;;9.00;99.90;;;;;;4137393;28;20113;-76
2023/11/24 03:55:44;;;;;;;10.43;2.05;;;9.00;99.90;;;;;;4165062;28;20029;-76
2023/11/24 03:57:46;;;;;;;6.45;1.90;;;9.00;99.90;;;;;;4163619;28;20498;-77
2023/11/24 03:59:46;;;;;;;10.20;2.17;;;9.00;99.90;;;;;;4156853;28;20036;-77
2023/11/24 04:01:47;;;;;;;8.50;2.05;;;9.00;99.90;;;;;;4163353;28;20041;-75
2023/11/24 04:03:48;;;;;;;8.20;1.85;;;9.00;99.90;;;;;;4148632;28;20576;-76
2023/11/24 04:05:48;;;;;;;7.28;2.00;;;9.00;99.90;;;;;;4161371;28;20886;-76
2023/11/24 04:07:49;;;;;;;8.02;1.95;;;9.10;99.90;;;;;;4156427;28;20037;-76
2023/11/24 04:09:49;;;;;;;5.10;1.50;;;9.10;99.90;;;;;;4171714;28;20044;-76
2023/11/24 04:11:51;;;;;;;7.72;1.95;;;9.10;99.90;;;;;;4143585;28;20487;-76
2023/11/24 04:13:53;;;;;;;7.70;1.57;;;9.00;99.90;;;;;;4172565;28;20445;-77
2023/11/24 04:15:53;;;;;;;5.60;1.70;;;9.00;99.90;;;;;;4162472;28;20276;-74
2023/11/24 04:17:54;;;;;;;4.40;1.20;;;9.00;99.90;;;;;;4173337;28;20025;-74
2023/11/24 04:19:55;;;;;;;7.65;1.55;;;9.00;99.90;;;;;;4167016;28;20121;-73
2023/11/24 04:21:56;;;;;;;6.18;1.65;;;9.00;99.90;;;;;;4172282;28;20163;-74
2023/11/24 04:23:56;;;;;;;8.90;1.80;;;8.90;99.90;;;;;;4172687;28;20043;-74
2023/11/24 04:25:57;;;;;;;8.07;1.80;;;8.90;99.90;;;;;;4163156;28;20056;-73
2023/11/24 04:27:57;;;;;;;7.75;1.67;;;8.90;99.90;;;;;;4146560;28;20042;-73
2023/11/24 04:29:58;;;;;;;7.75;1.60;;;8.90;99.90;;;;;;4153780;28;20034;-73
2023/11/24 04:31:59;;;;;;;9.00;1.50;;;8.90;99.90;;;;;;4152188;28;20040;-73
2023/11/24 04:34:00;;;;;;;4.10;1.17;;;8.90;99.90;;;;;;4149452;28;20037;-74
2023/11/24 04:36:01;;;;;;;7.03;2.03;;;8.90;99.90;;;;;;4167265;28;20041;-74
2023/11/24 04:38:02;;;;;;;10.65;1.80;;;8.90;99.90;;;;;;4171416;28;20040;-74
2023/11/24 04:40:03;;;;;;;5.93;1.63;;;8.90;99.90;;;;;;4163963;28;20127;-74
2023/11/24 04:42:04;;;;;;;7.90;1.20;;;8.90;99.90;;;;;;4167942;28;20049;-74
2023/11/24 04:44:05;;;;;;;7.25;1.50;;;8.90;99.90;;;;;;4167263;28;20115;-73
2023/11/24 04:46:09;;;;;;;7.07;1.58;;;8.80;99.90;;;;;;4169325;28;20037;-73
2023/11/24 04:48:12;;;;;;;12.35;1.77;;;8.80;99.90;;;;;;4163251;28;20360;-73
2023/11/24 04:50:14;;;;;;;10.75;1.98;;;8.90;99.90;;;;;;4163163;28;20033;-74
2023/11/24 04:52:14;;;;;;;8.23;1.70;;;8.80;99.90;;;;;;4149858;28;20125;-74
2023/11/24 04:54:15;;;;;;;8.70;1.95;;;8.90;99.90;;;;;;4150414;28;20414;-74
2023/11/24 04:56:16;;;;;;;5.20;1.38;;;8.90;99.90;;;;;;4147421;28;20512;-74
2023/11/24 04:58:16;;;;;;;3.53;1.33;;;8.80;99.90;;;;;;4152683;28;20507;-74
2023/11/24 05:00:18;;;;;;;8.15;1.83;;;8.80;99.90;;;;;;4163852;28;20025;-74
2023/11/24 05:02:18;;;;;;;10.35;1.55;;;8.80;99.90;;;;;;4167949;28;20033;-73
2023/11/24 05:04:19;;;;;;;8.60;2.00;;;8.80;99.90;;;;;;4166055;28;20469;-73
2023/11/24 05:06:20;;;;;;;9.93;1.92;;;8.80;99.90;;;;;;4165274;28;20041;-74
2023/11/24 05:08:21;;;;;;;12.93;2.10;;;8.80;99.90;;;;;;4164376;28;20099;-74
2023/11/24 05:10:22;;;;;;;8.80;1.83;;;8.80;99.90;;;;;;4165603;28;20167;-73
2023/11/24 05:12:23;;;;;;;10.48;1.75;;;8.80;99.90;;;;;;4163041;28;20039;-73
2023/11/24 05:14:23;;;;;;;6.68;1.73;;;8.70;99.90;;;;;;4151063;28;20462;-75
2023/11/24 05:16:24;;;;;;;11.30;1.67;;;8.80;99.90;;;;;;4171024;28;20036;-73
2023/11/24 05:18:25;;;;;;;10.05;1.75;;;8.70;99.90;;;;;;4166939;28;20082;-72
2023/11/24 05:20:26;;;;;;;9.35;1.58;;;8.70;99.90;;;;;;4170700;28;20113;-71
2023/11/24 05:22:26;;;;;;;8.68;1.63;;;8.70;99.90;;;;;;4164910;28;20497;-72
2023/11/24 05:24:27;;;;;;;8.88;1.60;;;8.70;99.90;;;;;;4170981;28;20041;-74
2023/11/24 05:26:27;;;;;;;7.93;1.77;;;8.70;99.90;;;;;;4167670;28;20028;-74
2023/11/24 05:28:28;;;;;;;14.13;1.88;;;8.70;99.90;;;;;;4167772;28;20030;-73
2023/11/24 05:30:29;;;;;;;10.65;1.80;;;8.70;99.90;;;;;;4162076;28;20183;-76
2023/11/24 05:32:29;;;;;;;8.75;1.98;;;8.70;99.90;;;;;;4171968;28;20077;-76
2023/11/24 05:34:30;;;;;;;8.30;1.50;;;8.70;99.90;;;;;;4155294;28;20458;-73
2023/11/24 05:36:33;;;;;;;7.38;1.20;;;8.70;99.90;;;;;;4165363;28;20083;-74
2023/11/24 05:38:34;;;;;;;2.88;0.88;;;8.70;99.90;;;;;;4153747;28;20523;-74
2023/11/24 05:40:34;;;;;;;7.15;1.55;;;8.70;99.90;;;;;;4167887;28;20033;-73
2023/11/24 05:42:35;;;;;;;3.55;1.30;;;8.60;99.90;;;;;;4137223;28;20029;-73
2023/11/24 05:44:36;;;;;;;8.00;1.70;;;8.70;99.90;;;;;;4140130;28;20033;-73
2023/11/24 05:46:38;;;;;;;3.58;1.33;;;8.60;99.90;;;;;;4166608;28;20021;-74
2023/11/24 05:48:39;;;;;;;6.45;1.38;;;8.60;99.90;;;;;;4147276;28;20076;-74
2023/11/24 05:50:39;;;;;;;13.57;1.95;;;8.60;99.90;;;;;;4170780;28;20037;-75
2023/11/24 05:52:40;;;;;;;5.68;1.40;;;8.60;99.90;;;;;;4152086;28;20518;-73
2023/11/24 05:54:41;;;;;;;6.20;1.48;;;8.60;99.90;;;;;;4151092;28;20033;-73
2023/11/24 05:56:42;;;;;;;6.28;1.45;;;8.50;99.90;;;;;;4144050;28;20060;-74
2023/11/24 05:58:44;;;;;;;5.75;1.50;;;8.60;99.90;;;;;;4163303;28;20036;-74
2023/11/24 06:00:45;;;;;;;4.95;1.50;;;8.50;99.90;;;;;;4152970;28;20033;-73
2023/11/24 06:02:46;;;;;;;8.05;1.77;;;8.60;99.90;;;;;;4170468;28;20057;-73
2023/11/24 06:04:47;;;;;;;4.50;1.60;;;8.50;99.90;;;;;;4161676;28;20056;-74
2023/11/24 06:06:49;;;;;;;7.57;1.48;;;8.50;99.90;;;;;;4169954;28;20034;-74
2023/11/24 06:08:50;;;;;;;7.20;1.80;;;8.60;99.90;;;;;;4152429;28;20046;-73
2023/11/24 06:10:50;;;;;;;7.47;1.60;;;8.60;99.90;;;;;;4137630;28;20653;-75
2023/11/24 06:12:51;;;;;;;6.10;1.38;;;8.50;99.90;;;;;;4153491;28;20527;-74
2023/11/24 06:14:52;;;;;;;4.57;1.35;;;8.50;99.90;;;;;;4143658;28;20029;-73
2023/11/24 06:16:53;;;;;;;13.52;1.80;;;8.50;99.90;;;;;;4128985;28;20057;-73
2023/11/24 06:18:53;;;;;;;7.53;1.75;;;8.50;99.90;;;;;;4119407;28;20042;-73
2023/11/24 06:20:54;;;;;;;9.32;1.98;;;8.50;99.90;;;;;;4149670;28;20483;-74
2023/11/24 06:22:55;;;;;;;10.13;1.75;;;8.60;99.90;;;;;;4171573;28;20032;-73
2023/11/24 06:24:55;;;;;;;10.73;2.20;;;8.60;99.90;;;;;;4169623;28;20056;-73
2023/11/24 06:26:56;;;;;;;9.98;1.88;;;8.50;99.90;;;;;;4166348;28;20403;-74
2023/11/24 06:28:56;;;;;;;10.25;1.90;;;8.50;99.90;;;;;;4145275;28;20044;-73
2023/11/24 06:30:57;;;;;;;10.27;2.05;;;8.50;99.90;;;;;;4119865;28;20041;-74
2023/11/24 06:32:58;;;;;;;5.20;1.45;;;8.50;99.90;;;;;;4082320;28;20515;-74
2023/11/24 06:34:58;;;;;;;6.65;1.45;;;8.50;99.90;;;;;;4126016;28;20038;-76
2023/11/24 06:36:59;;;;;;;9.85;1.90;;;8.40;99.90;;;;;;4115459;28;20065;-77
2023/11/24 06:39:02;;;;;;;5.60;1.67;;;8.50;99.90;;;;;;4154926;28;20117;-76
2023/11/24 06:41:06;;;;;;;10.15;2.05;;;8.40;99.90;;;;;;4156943;28;20030;-76
2023/11/24 06:43:06;;;;;;;9.45;1.80;;;8.40;99.90;;;;;;4162334;28;20029;-77
2023/11/24 06:45:09;;;;;;;10.73;1.85;;;8.40;99.90;;;;;;4128412;28;20052;-76
2023/11/24 06:47:09;;;;;;;;;;;8.40;99.90;;;;;;4145211;28;20041;-76
2023/11/24 06:49:10;;;;;;;6.55;1.67;;;8.30;99.90;;;;;;4156569;28;19913;-76
2023/11/24 06:51:11;;;;;;;11.63;1.80;;;8.30;99.90;;;;;;4152978;28;20040;-74
2023/11/24 06:53:13;;;;;;;7.45;1.50;;;8.30;99.90;;;;;;4144241;28;20041;-76
2023/11/24 06:55:14;;;;;;;13.23;1.92;;;8.30;99.90;;;;;;4151700;28;20115;-73
2023/11/24 06:57:16;;;;;;;6.28;1.63;;;8.20;99.90;;;;;;4135669;28;20502;-75
2023/11/24 06:59:17;;;;;;;10.30;1.50;;;8.30;99.90;;;;;;4124583;28;20051;-75
2023/11/24 07:01:27;;;;;;;9.23;1.52;;;8.20;99.90;;;;;;4170698;28;20047;-75
2023/11/24 07:03:28;;;;;;;11.98;1.63;;;8.20;99.90;;;;;;4170450;28;20033;-76
2023/11/24 07:05:28;;;;;;;7.30;1.77;;;8.20;99.90;;;;;;4155090;28;20034;-76
2023/11/24 07:07:29;;;;;;;7.13;1.33;;;8.20;99.90;;;;;;4166805;28;20395;-76
2023/11/24 07:09:30;;;;;;;4.75;1.15;;;8.20;99.90;;;;;;4150847;28;20041;-75
2023/11/24 07:11:30;;;;;;;8.63;1.95;;;8.20;99.90;;;;;;4155615;28;20064;-76
2023/11/24 07:13:31;;;;;;;13.32;1.90;;;8.20;99.90;;;;;;4151677;28;20049;-76
2023/11/24 07:15:32;;;;;;;8.35;1.58;;;8.20;99.90;;;;;;4153801;28;20694;-73
2023/11/24 07:17:32;;;;;;;10.55;1.98;;;8.20;99.90;;;;;;4151670;28;20036;-75
2023/11/24 07:19:33;;;;;;;7.22;1.45;;;8.20;99.90;;;;;;4164988;28;20041;-75
2023/11/24 07:21:34;;;;;;;7.65;1.48;;;8.20;99.90;;;;;;4166073;28;20088;-75
2023/11/24 07:23:37;;;;;;;6.13;1.80;;;8.20;99.90;;;;;;4154085;28;20084;-75
2023/11/24 07:25:39;;;;;;;6.32;1.23;;;8.20;99.90;;;;;;4145022;28;20034;-76
2023/11/24 07:27:41;;;;;;;6.35;1.77;;;8.10;99.90;;;;;;4167349;28;20051;-74
2023/11/24 07:29:42;;;;;;;7.38;1.60;;;8.10;99.90;;;;;;4167345;28;20033;-74
2023/11/24 07:31:42;;;;;;;10.30;2.00;;;8.10;99.90;;;;;;4167959;28;20033;-76
2023/11/24 07:33:47;;;;;;;9.90;1.75;;;8.10;99.90;;;;;;4173494;28;20041;-76
2023/11/24 07:35:47;;;;;;;4.78;0.95;;;8.10;99.90;;;;;;4171131;28;20040;-73
2023/11/24 07:37:48;;;;;;;10.30;2.00;;;8.10;99.90;;;;;;4173133;28;20498;-76
2023/11/24 07:39:49;;;;;;;9.00;1.77;;;8.10;99.90;;;;;;4167145;28;20045;-76
2023/11/24 07:41:50;;;;;;;6.40;1.75;;;8.10;99.90;;;;;;4151020;28;20060;-75
2023/11/24 07:43:50;;;;;;;8.05;1.38;;;8.10;99.90;;;;;;4171569;28;20048;-75
2023/11/24 07:45:51;;;;;;;9.45;1.50;;;8.10;99.90;;;;;;4169027;28;20037;-75
2023/11/24 07:47:52;;;;;;;7.90;1.70;;;8.10;99.90;;;;;;4154419;28;20041;-75
2023/11/24 07:49:54;;;;;;;7.47;1.50;;;8.10;99.90;;;;;;4151369;28;20038;-74
2023/11/24 07:51:54;;;;;;;8.98;1.75;;;8.00;99.90;;;;;;4170408;28;20361;-75
2023/11/24 07:53:58;;;;;;;9.85;1.77;;;8.10;99.90;;;;;;4165255;28;20037;-76
2023/11/24 07:56:00;;;;;;;4.97;1.30;;;8.10;99.90;;;;;;4140728;28;20109;-77
2023/11/24 07:58:00;;;;;;;9.55;1.85;;;8.10;99.90;;;;;;4170274;28;20391;-76
2023/11/24 08:00:03;;;;;;;8.48;1.77;;;8.10;99.90;;;;;;4169635;28;20033;-76
2023/11/24 08:02:04;;;;;;;12.23;2.00;;;8.20;99.90;;;;;;4151742;28;20053;-76
2023/11/24 08:04:05;;;;;;;10.95;1.70;;;8.10;99.90;;;;;;4169510;28;20029;-77
2023/11/24 08:06:09;;;;;;;8.57;1.85;;;8.10;99.90;;;;;;4168917;28;20479;-75
2023/11/24 08:08:10;;;;;;;8.35;1.80;;;8.10;99.90;;;;;;4156864;28;20041;-77
2023/11/24 08:10:11;;;;;;;8.15;1.70;;;8.00;99.90;;;;;;4164813;28;20044;-76
2023/11/24 08:12:13;;;;;;;7.13;1.63;;;8.00;99.90;;;;;;4145594;28;20025;-73
2023/11/24 08:14:14;;;;;;;8.23;1.88;;;8.00;99.90;;;;;;4167343;28;20052;-76
2023/11/24 08:16:15;;;;;;;6.50;1.48;;;8.00;99.90;;;;;;4150123;28;20053;-78
2023/11/24 08:18:16;;;;;;;7.05;1.23;;;8.00;99.90;;;;;;4148331;28;20049;-72
2023/11/24 08:20:18;;;;;;;7.40;1.92;;;8.00;99.90;;;;;;4138544;28;20403;-76
2023/11/24 08:22:22;;;;;;;6.25;1.10;;;8.00;99.90;;;;;;4143511;28;20042;-76
2023/11/24 08:24:23;;;;;;;8.35;1.30;;;8.20;99.90;;;;;;4150502;28;20046;-77
2023/11/24 08:26:23;;;;;;;11.23;1.95;;;8.20;99.90;;;;;;4151969;28;20064;-73
2023/11/24 08:28:24;;;;;;;6.43;1.40;;;8.20;99.90;;;;;;4125113;28;20076;-75
2023/11/24 08:30:25;;;;;;;5.40;1.48;;;8.20;99.90;;;;;;4148458;28;20041;-75
2023/11/24 08:32:28;;;;;;;7.68;1.35;;;8.20;99.90;;;;;;4169366;28;20037;-72
2023/11/24 08:34:29;;;;;;;5.30;1.27;;;8.20;99.90;;;;;;4170321;28;20056;-77
2023/11/24 08:36:31;;;;;;;11.40;1.45;;;8.20;99.90;;;;;;4151043;28;20048;-76
2023/11/24 08:38:32;;;;;;;10.00;1.90;;;8.20;99.90;;;;;;4152241;28;20483;-77
2023/11/24 08:40:33;;;;;;;6.65;1.70;;;8.30;99.90;;;;;;4152821;28;20040;-77
2023/11/24 08:42:33;;;;;;;9.82;1.63;;;8.40;99.90;;;;;;4157062;28;20049;-77
2023/11/24 08:44:34;;;;;;;4.43;1.10;;;8.50;99.90;;;;;;4153934;28;20549;-81
2023/11/24 08:46:35;;;;;;;4.90;1.25;;;8.70;99.90;;;;;;4151727;28;20037;-76
2023/11/24 08:48:36;;;;;;;10.60;1.48;;;8.80;99.90;;;;;;4149917;28;20038;-77
2023/11/24 08:50:37;;;;;;;6.72;1.30;;;8.80;99.90;;;;;;4174228;28;20540;-74
2023/11/24 08:52:38;;;;;;;6.32;1.38;;;8.80;99.90;;;;;;4156228;28;20487;-77
2023/11/24 08:54:39;;;;;;;5.43;1.23;;;8.70;99.90;;;;;;4146866;28;20084;-75
2023/11/24 08:56:40;;;;;;;8.73;1.63;;;8.60;99.90;;;;;;4133196;28;20545;-68
2023/11/24 08:58:41;;;;;;;5.97;1.38;;;8.60;99.90;;;;;;4150654;28;20037;-71
2023/11/24 09:00:41;;;;;;;6.55;1.10;;;8.50;99.90;;;;;;4168826;28;20384;-70
2023/11/24 09:02:43;;;;;;;7.13;1.55;;;8.50;99.90;;;;;;4149495;28;20059;-70
2023/11/24 09:04:44;;;;;;;7.07;1.65;;;8.50;99.90;;;;;;4136686;28;20037;-74
2023/11/24 09:06:45;;;;;;;3.65;1.17;;;8.40;99.90;;;;;;4168332;28;20476;-74
2023/11/24 09:08:46;;;;;;;6.18;1.35;;;8.40;99.90;;;;;;4142987;28;20057;-74
2023/11/24 09:10:46;;;;;;;5.90;1.20;;;8.40;99.90;;;;;;4166788;28;20454;-74
2023/11/24 09:12:47;;;;;;;7.05;1.63;;;8.40;99.90;;;;;;4151758;28;20030;-73
2023/11/24 09:14:47;;;;;;;9.00;1.70;;;8.40;99.90;;;;;;4139274;28;20060;-73
2023/11/24 09:16:49;;;;;;;8.18;1.92;;;8.30;99.90;;;;;;4145335;28;20052;-73
2023/11/24 09:18:49;;;;;;;5.85;1.70;;;8.30;99.90;;;;;;4149196;28;20072;-73
2023/11/24 09:20:50;;;;;;;13.48;2.20;;;8.30;99.90;;;;;;4166731;28;20037;-73
2023/11/24 09:22:51;;;;;;;10.05;1.42;;;8.20;99.90;;;;;;4170366;28;20120;-74
2023/11/24 09:24:51;;;;;;;12.90;1.48;;;8.10;99.90;;;;;;4166978;28;20492;-74
2023/11/24 09:26:53;;;;;;;9.30;1.40;;;8.10;99.90;;;;;;4148884;28;20113;-73
2023/11/24 09:28:53;;;;;;;3.65;0.82;;;8.10;99.90;;;;;;4130527;28;20094;-74
2023/11/24 09:30:57;;;;;;;6.78;1.25;;;8.00;99.90;;;;;;4145762;28;20026;-75
2023/11/24 09:32:58;;;;;;;5.72;1.15;;;8.10;99.90;;;;;;4167000;28;20056;-73
2023/11/24 09:34:59;;;;;;;6.55;1.52;;;8.00;99.90;;;;;;4149072;28;20034;-73
2023/11/24 09:37:01;;;;;;;7.13;1.45;;;8.00;99.90;;;;;;4148317;28;20029;-73
2023/11/24 09:39:02;;;;;;;4.55;1.13;;;8.00;99.90;;;;;;4149082;28;20045;-74
2023/11/24 09:41:08;;;;;;;6.43;1.33;;;8.00;99.90;;;;;;4134592;28;20052;-73
2023/11/24 09:43:10;;;;;;;6.00;1.17;;;8.00;99.90;;;;;;4168924;28;20033;-74
2023/11/24 09:45:14;;;;;;;2.65;1.00;;;8.00;99.90;;;;;;4166154;28;20040;-73
2023/11/24 09:47:17;;;;;;;5.25;0.70;;;8.00;99.90;;;;;;4150498;28;20042;-73
2023/11/24 09:49:20;;;;;;;8.43;1.23;;;8.10;99.90;;;;;;4148722;28;20061;-73
2023/11/24 09:51:22;;;;;;;1.73;0.80;;;8.10;99.90;;;;;;4154041;28;20085;-74
2023/11/24 09:53:26;;;;;;;8.30;1.52;;;8.10;99.90;;;;;;4133179;28;20036;-73
2023/11/24 09:55:28;;;;;;;1.30;0.57;;;8.10;99.90;;;;;;4168117;28;20049;-74
2023/11/24 09:57:29;;;;;;;4.03;0.95;;;8.10;99.90;;;;;;4132248;28;21254;-74
2023/11/24 09:59:30;;;;;;;2.90;0.70;;;8.10;99.90;;;;;;4118031;28;20037;-74
2023/11/24 10:01:31;;;;;;;5.07;1.23;;;8.10;99.90;;;;;;4150982;28;20675;-73
2023/11/24 10:03:39;;;;;;;3.38;0.73;;;8.10;99.90;;;;;;4167154;28;20083;-74
2023/11/24 10:05:40;;;;;;;2.83;0.57;;;8.10;99.90;;;;;;4164587;28;20034;-74
2023/11/24 10:07:41;;;;;;;4.30;0.98;;;8.10;99.90;;;;;;4169819;28;20043;-74
2023/11/24 10:09:48;;;;;;;3.90;0.93;;;8.10;99.90;;;;;;4169712;28;20037;-74
2023/11/24 10:11:50;;;;;;;6.38;1.13;;;8.10;99.90;;;;;;4145762;28;20144;-75
2023/11/24 10:13:57;;;;;;;1.88;0.68;;;8.10;99.90;;;;;;4163728;28;20040;-75
2023/11/24 10:16:01;;;;;;;5.15;1.25;;;8.10;99.90;;;;;;4156129;28;20056;-74
2023/11/24 10:18:03;;;;;;;5.30;1.00;;;8.10;99.90;;;;;;4165851;28;20048;-74
2023/11/24 10:20:11;;;;;;;1.83;0.73;;;8.10;99.90;;;;;;4171703;28;20049;-74
2023/11/24 10:22:11;;;;;;;5.53;1.05;;;8.10;99.90;;;;;;4161368;28;20041;-74
2023/11/24 10:24:12;;;;;;;5.68;1.00;;;8.10;99.90;;;;;;4159100;28;20064;-74
2023/11/24 10:26:15;;;;;;;4.28;1.10;;;8.10;99.90;;;;;;4149199;28;20449;-75
2023/11/24 10:28:18;;;;;;;2.78;0.90;;;8.10;99.90;;;;;;4144870;28;20506;-75
2023/11/24 10:30:20;;;;;;;;;;;8.10;99.90;;;;;;4148244;28;20052;-75
2023/11/24 10:32:21;;;;;;;8.25;1.45;;;8.10;99.90;;;;;;4154237;28;19923;-75
2023/11/24 10:34:24;;;;;;;3.08;1.20;;;8.10;99.90;;;;;;4150488;28;20045;-75
2023/11/24 10:36:25;;;;;;;11.65;1.10;;;8.10;99.90;;;;;;4143597;28;20034;-73